Time;durP1;ratioP1;P1;durP2;ratioP2;P2;SDS_P1;SDS_P2;PMS_P1;PMS_P2;Temp;Humidity;BMP_temperature;BMP_pressure;BME280_temperature;BME280_humidity;BME280_pressure;Samples;Min_cycle;Max_cycle;Signal;HPM_P1;HPM_P2
2022/08/16 00:00:18;;;;;;;11.95;9.32;;;563.70;2432.00;;;;;;5047507;28;20529;-84
2022/08/16 00:02:44;;;;;;;13.50;10.98;;;563.80;2432.00;;;;;;5045584;28;20138;-84
2022/08/16 00:05:12;;;;;;;14.05;9.68;;;563.90;2432.00;;;;;;5051702;28;20073;-84
2022/08/16 00:07:39;;;;;;;14.88;9.00;;;563.90;2432.00;;;;;;5056367;28;20031;-83
2022/08/16 00:10:08;;;;;;;13.23;10.48;;;563.70;2432.00;;;;;;5056408;28;20025;-82
2022/08/16 00:12:34;;;;;;;15.30;10.75;;;563.80;2432.00;;;;;;5047498;28;20028;-84
2022/08/16 00:15:05;;;;;;;14.60;9.70;;;564.00;2432.00;;;;;;5036820;28;20039;-81
2022/08/16 00:17:31;;;;;;;14.13;10.73;;;563.70;2432.00;;;;;;5036528;28;20041;-83
2022/08/16 00:19:57;;;;;;;13.95;10.65;;;563.40;2432.00;;;;;;5036916;28;20027;-82
2022/08/16 00:22:24;;;;;;;15.20;11.98;;;563.50;2432.00;;;;;;5036651;28;20049;-84
2022/08/16 00:24:50;;;;;;;13.20;10.75;;;563.30;2432.00;;;;;;5036656;28;20448;-83
2022/08/16 00:27:16;;;;;;;13.48;10.85;;;563.50;2432.00;;;;;;5041624;28;20032;-84
2022/08/16 00:29:42;;;;;;;15.90;11.10;;;563.50;2432.00;;;;;;5056493;28;20056;-83
2022/08/16 00:32:08;;;;;;;13.02;10.23;;;563.50;2432.00;;;;;;5056506;28;20028;-83
2022/08/16 00:34:36;;;;;;;13.23;10.05;;;563.60;2432.00;;;;;;5056066;28;20029;-83
2022/08/16 00:37:03;;;;;;;15.68;11.82;;;563.60;2432.00;;;;;;5056283;28;20500;-82
2022/08/16 00:39:29;;;;;;;17.65;11.30;;;563.60;2432.00;;;;;;5056122;28;20020;-82
2022/08/16 00:41:55;;;;;;;14.82;10.77;;;563.60;2432.00;;;;;;5055837;28;20046;-82
2022/08/16 00:44:21;;;;;;;15.98;10.95;;;563.60;2432.00;;;;;;5056374;28;20064;-84
2022/08/16 00:47:04;;;;;;;17.10;10.35;;;563.70;2432.00;;;;;;5056318;28;20052;-81
2022/08/16 00:49:32;;;;;;;15.57;11.52;;;563.50;2432.00;;;;;;5050460;28;20053;-85
2022/08/16 00:51:58;;;;;;;16.38;11.13;;;563.40;2432.00;;;;;;5043329;28;20025;-83
2022/08/16 00:54:28;;;;;;;15.57;10.55;;;563.70;2432.00;;;;;;5045779;28;20036;-85
2022/08/16 00:56:56;;;;;;;13.77;10.00;;;563.50;2432.00;;;;;;5035971;28;20060;-83
2022/08/16 00:59:26;;;;;;;12.45;10.07;;;563.40;2432.00;;;;;;5050824;28;20021;-82
2022/08/16 01:01:53;;;;;;;12.27;10.68;;;563.30;2380.80;;;;;;5047397;28;20021;-81
2022/08/16 01:04:25;;;;;;;13.02;10.60;;;563.40;2432.00;;;;;;5052291;28;20355;-84
2022/08/16 01:06:52;;;;;;;11.32;9.93;;;563.30;2432.00;;;;;;5044974;28;20438;-84
2022/08/16 01:09:19;;;;;;;15.82;11.00;;;538.50;2406.40;;;;;;5045465;28;20116;-83
2022/08/16 01:11:45;;;;;;;12.88;10.20;;;538.50;2406.40;;;;;;5055517;28;20008;-83
2022/08/16 01:14:32;;;;;;;13.32;11.18;;;538.50;2406.40;;;;;;5074440;28;20037;-84
2022/08/16 01:17:03;;;;;;;11.88;9.60;;;563.20;2432.00;;;;;;5068837;28;20049;-83
2022/08/16 01:19:47;;;;;;;12.25;8.63;;;538.50;2406.40;;;;;;5069162;28;20020;-88
2022/08/16 01:22:51;;;;;;;11.57;9.85;;;563.20;2432.00;;;;;;5047429;28;20029;-83
2022/08/16 01:25:28;;;;;;;11.73;9.98;;;563.30;2432.00;;;;;;4965623;28;20031;-84
2022/08/16 01:28:00;;;;;;;13.75;10.55;;;563.30;2432.00;;;;;;5023077;28;20056;-85
2022/08/16 01:30:36;;;;;;;14.73;9.45;;;563.20;2432.00;;;;;;5071751;28;20017;-85
2022/08/16 01:33:05;;;;;;;12.57;10.00;;;563.30;2432.00;;;;;;5072558;28;20024;-84
2022/08/16 01:35:52;;;;;;;12.88;11.27;;;563.30;2432.00;;;;;;5058730;28;20069;-85
2022/08/16 01:38:24;;;;;;;14.57;11.07;;;563.20;2432.00;;;;;;5055658;28;20024;-83
2022/08/16 01:40:54;;;;;;;14.50;11.80;;;538.50;2406.40;;;;;;5055851;28;20044;-85
2022/08/16 01:43:21;;;;;;;12.23;10.95;;;538.50;2406.40;;;;;;5055731;28;20035;-84
2022/08/16 01:45:47;;;;;;;14.25;11.10;;;563.20;2432.00;;;;;;5046408;28;20107;-86
2022/08/16 01:48:13;;;;;;;15.60;11.88;;;538.50;2406.40;;;;;;5053873;28;20501;-85
2022/08/16 01:50:44;;;;;;;16.92;12.13;;;538.40;2406.40;;;;;;5052574;28;20036;-87
2022/08/16 01:53:11;;;;;;;13.57;10.80;;;538.40;2406.40;;;;;;5041026;28;20036;-85
2022/08/16 01:55:37;;;;;;;17.60;12.02;;;538.50;2406.40;;;;;;5059402;28;20033;-84
2022/08/16 01:58:03;;;;;;;14.02;11.30;;;538.40;2406.40;;;;;;5059024;28;20111;-86
2022/08/16 02:00:29;;;;;;;13.05;11.23;;;538.50;2406.40;;;;;;5046153;28;20025;-84
2022/08/16 02:02:56;;;;;;;16.63;11.13;;;538.20;2406.40;;;;;;5049269;28;20377;-86
2022/08/16 02:05:22;;;;;;;12.80;10.60;;;538.30;2406.40;;;;;;5042378;28;20470;-84
2022/08/16 02:07:48;;;;;;;15.73;11.68;;;538.40;2406.40;;;;;;5045901;28;20024;-84
2022/08/16 02:10:15;;;;;;;14.32;10.98;;;538.20;2406.40;;;;;;5059154;28;20021;-83
2022/08/16 02:12:42;;;;;;;11.85;10.32;;;538.40;2406.40;;;;;;5059025;28;20025;-83
2022/08/16 02:15:08;;;;;;;14.40;11.45;;;538.30;2329.60;;;;;;5058862;28;20028;-85
2022/08/16 02:17:34;;;;;;;12.70;11.18;;;538.30;2406.40;;;;;;5062772;28;20048;-84
2022/08/16 02:20:01;;;;;;;17.27;11.10;;;538.30;2406.40;;;;;;5057114;28;20025;-83
2022/08/16 02:22:27;;;;;;;12.68;10.75;;;538.40;2406.40;;;;;;5067629;28;20021;-83
2022/08/16 02:24:53;;;;;;;12.93;10.80;;;538.40;2406.40;;;;;;5075167;28;20181;-83
2022/08/16 02:27:26;;;;;;;17.73;10.98;;;538.40;2406.40;;;;;;5070927;28;20521;-84
2022/08/16 02:29:52;;;;;;;12.27;10.55;;;538.20;2406.40;;;;;;5075430;28;20025;-83
2022/08/16 02:32:18;;;;;;;13.75;10.38;;;563.40;2432.00;;;;;;5075190;28;20028;-84
2022/08/16 02:34:44;;;;;;;15.80;11.10;;;538.20;2406.40;;;;;;5075391;28;20020;-83
2022/08/16 02:37:10;;;;;;;12.88;9.65;;;538.50;2176.00;;;;;;5075196;28;20089;-84
2022/08/16 02:39:36;;;;;;;15.10;10.20;;;538.10;2406.40;;;;;;5075020;28;20481;-83
2022/08/16 02:42:03;;;;;;;14.25;10.30;;;538.30;2406.40;;;;;;5075064;28;20066;-83
2022/08/16 02:44:30;;;;;;;11.57;9.77;;;538.40;2406.40;;;;;;5075321;28;20024;-83
2022/08/16 02:46:56;;;;;;;10.52;9.43;;;538.30;2406.40;;;;;;5074991;28;20028;-86
2022/08/16 02:49:22;;;;;;;11.73;9.30;;;538.30;2406.40;;;;;;5075156;28;20025;-82
2022/08/16 02:51:48;;;;;;;15.27;10.88;;;538.00;2406.40;;;;;;5074955;28;20029;-83
2022/08/16 02:54:14;;;;;;;13.68;10.77;;;537.70;2406.40;;;;;;5074744;28;20465;-83
2022/08/16 02:56:41;;;;;;;13.30;10.00;;;537.80;2304.00;;;;;;5074656;28;20036;-83
2022/08/16 02:59:08;;;;;;;11.88;9.88;;;537.80;2406.40;;;;;;5074721;28;20466;-82
2022/08/16 03:01:34;;;;;;;12.50;10.27;;;537.80;2406.40;;;;;;5074871;28;20020;-83
2022/08/16 03:04:01;;;;;;;15.55;10.73;;;537.90;2406.40;;;;;;5075127;28;20126;-83
2022/08/16 03:06:28;;;;;;;10.88;9.45;;;537.90;2406.40;;;;;;5074984;28;20021;-82
2022/08/16 03:08:54;;;;;;;15.90;10.27;;;537.80;2406.40;;;;;;5074765;28;20043;-84
2022/08/16 03:11:21;;;;;;;10.80;9.70;;;537.80;2406.40;;;;;;5074582;28;20028;-84
2022/08/16 03:13:53;;;;;;;11.35;10.02;;;537.80;2048.00;;;;;;5074680;28;20021;-82
2022/08/16 03:16:19;;;;;;;;;;;537.60;2406.40;;;;;;5077427;28;20077;-82
2022/08/16 03:18:46;;;;;;;12.13;9.38;;;512.90;2380.80;;;;;;5077597;28;19912;-82
2022/08/16 03:21:12;;;;;;;11.27;9.68;;;;;;;;;;5077707;28;20073;-82
2022/08/16 03:23:38;;;;;;;11.65;9.80;;;;;;;;;;5077662;28;20024;-82
2022/08/16 03:26:05;;;;;;;11.68;8.27;;;;;;;;;;5077370;28;20055;-82
2022/08/16 03:28:31;;;;;;;13.35;9.73;;;;;;;;;;5077602;28;20024;-82
2022/08/16 03:30:57;;;;;;;13.45;8.93;;;;;;;;;;5077550;28;20054;-82
2022/08/16 03:33:23;;;;;;;13.82;9.10;;;;;;;;;;5077658;28;20024;-82
2022/08/16 03:35:50;;;;;;;9.85;8.13;;;;;;;;;;5077367;28;20058;-84
2022/08/16 03:38:17;;;;;;;13.55;9.75;;;;;;;;;;5077494;28;20070;-82
2022/08/16 03:40:43;;;;;;;12.45;9.10;;;;;;;;;;5077716;28;20016;-82
2022/08/16 03:43:11;;;;;;;13.13;9.27;;;;;;;;;;5077234;28;20058;-81
2022/08/16 03:45:37;;;;;;;12.45;9.80;;;;;;;;;;5077158;28;20509;-81
2022/08/16 03:48:04;;;;;;;13.73;10.40;;;;;;;;;;5077043;28;20056;-83
2022/08/16 03:50:30;;;;;;;12.00;10.80;;;;;;;;;;5077031;28;20115;-82
2022/08/16 03:52:57;;;;;;;14.93;9.70;;;;;;;;;;5077125;28;20028;-82
2022/08/16 03:55:23;;;;;;;14.98;10.27;;;;;;;;;;5077118;28;20027;-81
2022/08/16 03:57:52;;;;;;;13.48;10.30;;;;;;;;;;5076827;28;20497;-83
2022/08/16 04:00:24;;;;;;;14.75;11.57;;;;;;;;;;5076617;28;20081;-84
2022/08/16 04:02:50;;;;;;;15.00;10.93;;;;;;;;;;5077062;28;20028;-81
2022/08/16 04:05:17;;;;;;;13.57;9.93;;;;;;;;;;5076922;28;20032;-81
2022/08/16 04:07:43;;;;;;;13.10;9.57;;;;;;;;;;5076718;28;20024;-83
2022/08/16 04:10:11;;;;;;;13.88;9.60;;;;;;;;;;5076044;28;20103;-82
2022/08/16 04:12:38;;;;;;;13.50;10.05;;;;;;;;;;5076814;28;20114;-84
2022/08/16 04:15:17;;;;;;;14.25;9.98;;;;;;;;;;5073163;28;20103;-82
2022/08/16 04:17:53;;;;;;;14.70;10.15;;;;;;;;;;5045199;28;20040;-83
2022/08/16 04:21:07;;;;;;;14.32;10.68;;;;;;;;;;5040602;28;20033;-84
2022/08/16 04:23:38;;;;;;;19.95;11.75;;;;;;;;;;5055420;28;20036;-88
2022/08/16 04:26:06;;;;;;;13.93;10.10;;;;;;;;;;5049609;28;20020;-86
2022/08/16 04:28:32;;;;;;;16.05;11.82;;;;;;;;;;5055980;28;20029;-84
2022/08/16 04:30:58;;;;;;;14.98;10.43;;;;;;;;;;5054897;28;20028;-86
2022/08/16 04:33:25;;;;;;;17.27;10.18;;;;;;;;;;5050332;28;20025;-83
2022/08/16 04:35:52;;;;;;;11.98;9.93;;;;;;;;;;5043677;28;20036;-84
2022/08/16 04:38:18;;;;;;;14.10;10.10;;;;;;;;;;5055601;28;20116;-83
2022/08/16 04:40:46;;;;;;;15.60;12.38;;;;;;;;;;5055567;28;20424;-85
2022/08/16 04:43:14;;;;;;;18.58;13.25;;;;;;;;;;5056287;28;20477;-85
2022/08/16 04:45:41;;;;;;;22.90;16.77;;;;;;;;;;5055788;28;20500;-85
2022/08/16 04:48:07;;;;;;;21.75;14.23;;;;;;;;;;5056379;28;20182;-83
2022/08/16 04:50:33;;;;;;;16.92;11.93;;;;;;;;;;5056328;28;20055;-83
2022/08/16 04:52:59;;;;;;;20.55;13.70;;;;;;;;;;5056104;28;20024;-85
2022/08/16 04:55:27;;;;;;;17.25;11.40;;;;;;;;;;5055802;28;20078;-84
2022/08/16 04:57:54;;;;;;;18.20;12.57;;;;;;;;;;5056072;28;20029;-85
2022/08/16 05:00:23;;;;;;;20.50;13.40;;;;;;;;;;5055731;28;20054;-85
2022/08/16 05:02:50;;;;;;;22.05;16.55;;;;;;;;;;5055990;28;20028;-84
2022/08/16 05:05:16;;;;;;;22.08;14.73;;;;;;;;;;5056293;28;20104;-85
2022/08/16 05:07:42;;;;;;;23.27;17.40;;;;;;;;;;5056061;28;20055;-85
2022/08/16 05:10:09;;;;;;;23.13;15.23;;;;;;;;;;5056383;28;20047;-82
2022/08/16 05:12:35;;;;;;;22.33;14.13;;;;;;;;;;5074335;28;20021;-83
2022/08/16 05:15:02;;;;;;;16.60;13.07;;;;;;;;;;5056182;28;20028;-84
2022/08/16 05:17:30;;;;;;;22.70;11.27;;;;;;;;;;5055650;28;20086;-84
2022/08/16 05:19:57;;;;;;;17.88;11.27;;;;;;;;;;5056398;28;20485;-84
2022/08/16 05:22:23;;;;;;;19.00;12.23;;;;;;;;;;5059973;28;20024;-83
2022/08/16 05:24:49;;;;;;;18.88;12.38;;;;;;;;;;5059976;28;20025;-84
2022/08/16 05:27:16;;;;;;;13.68;11.80;;;;;;;;;;5059759;28;20025;-84
2022/08/16 05:29:42;;;;;;;15.80;10.63;;;;;;;;;;5059787;28;20025;-83
2022/08/16 05:32:09;;;;;;;17.85;9.75;;;;;;;;;;5059606;28;20438;-85
2022/08/16 05:34:35;;;;;;;18.08;11.70;;;;;;;;;;5059788;28;20021;-85
2022/08/16 05:37:01;;;;;;;17.25;11.05;;;;;;;;;;5059823;28;20075;-85
2022/08/16 05:39:28;;;;;;;19.38;11.57;;;;;;;;;;5059529;28;20051;-84
2022/08/16 05:41:54;;;;;;;19.98;11.57;;;;;;;;;;5059452;28;20048;-84
2022/08/16 05:44:22;;;;;;;15.70;11.20;;;;;;;;;;5059461;28;20052;-84
2022/08/16 05:46:49;;;;;;;15.55;10.93;;;;;;;;;;5059806;28;20020;-84
2022/08/16 05:49:15;;;;;;;13.05;10.02;;;;;;;;;;5059289;28;20024;-85
2022/08/16 05:51:43;;;;;;;14.60;9.60;;;;;;;;;;5059449;28;20021;-84
2022/08/16 05:54:09;;;;;;;14.73;10.15;;;;;;;;;;5059689;28;20028;-84
2022/08/16 05:56:36;;;;;;;16.35;11.15;;;;;;;;;;5058965;28;20029;-85
2022/08/16 05:59:02;;;;;;;20.13;11.50;;;;;;;;;;5059746;28;20060;-84
2022/08/16 06:01:28;;;;;;;17.70;11.38;;;;;;;;;;5059272;28;20492;-83
2022/08/16 06:03:54;;;;;;;17.67;11.35;;;;;;;;;;5059243;28;20044;-85
2022/08/16 06:06:20;;;;;;;13.48;11.07;;;;;;;;;;5059137;28;20031;-84
2022/08/16 06:08:46;;;;;;;16.13;11.13;;;;;;;;;;5059412;28;20021;-85
2022/08/16 06:11:12;;;;;;;17.52;10.95;;;;;;;;;;5059054;28;20024;-85
2022/08/16 06:13:39;;;;;;;11.35;9.93;;;;;;;;;;5058804;28;20048;-84
2022/08/16 06:16:05;;;;;;;23.67;11.25;;;;;;;;;;5058932;28;20032;-84
2022/08/16 06:18:32;;;;;;;11.02;9.82;;;;;;;;;;5058666;28;20424;-83
2022/08/16 06:20:58;;;;;;;11.93;9.00;;;;;;;;;;5058528;28;20107;-86
2022/08/16 06:23:25;;;;;;;13.60;10.13;;;;;;;;;;5058835;28;20473;-83
2022/08/16 06:25:51;;;;;;;14.05;10.13;;;;;;;;;;5058561;28;20059;-83
2022/08/16 06:28:18;;;;;;;18.23;10.07;;;;;;;;;;5059088;28;20061;-85
2022/08/16 06:30:45;;;;;;;14.13;10.65;;;;;;;;;;5058476;28;20428;-83
2022/08/16 06:33:15;;;;;;;12.73;10.95;;;;;;;;;;5057824;28;20016;-83
2022/08/16 06:35:41;;;;;;;13.50;9.73;;;;;;;;;;5058852;28;20029;-84
2022/08/16 06:38:08;;;;;;;16.98;10.38;;;;;;;;;;5058545;28;20025;-84
2022/08/16 06:40:34;;;;;;;10.85;9.07;;;;;;;;;;5058591;28;20021;-84
2022/08/16 06:43:00;;;;;;;14.60;8.93;;;;;;;;;;5058511;28;20029;-84
2022/08/16 06:45:26;;;;;;;14.35;8.43;;;;;;;;;;5058360;28;20024;-82
2022/08/16 06:48:16;;;;;;;10.07;7.13;;;;;;;;;;5052066;28;20021;-83
2022/08/16 06:50:48;;;;;;;13.93;8.52;;;;;;;;;;5055531;28;20113;-82
2022/08/16 06:53:16;;;;;;;12.75;7.97;;;;;;;;;;5057543;28;20051;-81
2022/08/16 06:55:43;;;;;;;10.38;8.02;;;;;;;;;;5058055;28;20477;-83
2022/08/16 06:58:09;;;;;;;12.23;7.60;;;;;;;;;;5058003;28;20028;-81
2022/08/16 07:00:37;;;;;;;11.55;7.57;;;;;;;;;;5057989;28;20021;-81
2022/08/16 07:03:03;;;;;;;11.40;8.20;;;;;;;;;;5058114;28;20108;-82
2022/08/16 07:05:30;;;;;;;11.55;8.30;;;;;;;;;;5057898;28;20082;-80
2022/08/16 07:07:57;;;;;;;8.82;7.43;;;;;;;;;;5057933;28;20096;-82
2022/08/16 07:10:23;;;;;;;11.85;7.90;;;;;;;;;;5057638;28;20025;-82
2022/08/16 07:12:50;;;;;;;12.02;7.85;;;;;;;;;;5057627;28;20032;-81
2022/08/16 07:15:19;;;;;;;12.90;7.70;;;;;;;;;;5057710;28;20522;-81
2022/08/16 07:17:48;;;;;;;14.98;10.00;;;;;;;;;;5057644;28;20044;-81
2022/08/16 07:20:16;;;;;;;17.45;9.40;;;;;;;;;;5057233;28;20493;-83
2022/08/16 07:22:42;;;;;;;10.57;8.77;;;;;;;;;;5057671;28;20020;-81
2022/08/16 07:25:10;;;;;;;11.43;8.90;;;;;;;;;;5057688;28;20029;-83
2022/08/16 07:27:37;;;;;;;11.00;8.85;;;;;;;;;;5057496;28;20020;-81
2022/08/16 07:30:04;;;;;;;15.23;8.85;;;;;;;;;;5057835;28;20055;-81
2022/08/16 07:32:29;;;;;;;12.48;8.05;;;615.00;2432.00;;;;;;5057605;28;20162;-81
2022/08/16 07:34:55;;;;;;;10.93;8.80;;;614.90;2432.00;;;;;;5057579;28;20070;-82
2022/08/16 07:37:21;;;;;;;12.70;8.40;;;;;;;;;;5057493;28;20094;-84
2022/08/16 07:39:48;;;;;;;13.35;8.93;;;;;;;;;;5056979;28;20051;-82
2022/08/16 07:42:14;;;;;;;16.30;8.50;;;;;;;;;;5057219;28;20112;-84
2022/08/16 07:44:40;;;;;;;10.95;7.35;;;;;;;;;;5055987;28;20035;-82
2022/08/16 07:47:06;;;;;;;10.63;7.93;;;;;;;;;;5057363;28;20040;-82
2022/08/16 07:49:32;;;;;;;12.52;8.05;;;;;;;;;;5056994;28;20028;-82
2022/08/16 07:51:59;;;;;;;14.98;10.23;;;;;;;;;;5057099;28;20021;-81
2022/08/16 07:54:25;;;;;;;9.35;7.15;;;;;;;;;;5056921;28;20025;-82
2022/08/16 07:56:51;;;;;;;11.50;7.20;;;;;;;;;;5056787;28;20031;-82
2022/08/16 07:59:18;;;;;;;11.50;7.90;;;;;;;;;;5056891;28;20119;-82
2022/08/16 08:01:44;;;;;;;10.75;7.25;;;;;;;;;;5056644;28;20107;-83
2022/08/16 08:04:12;;;;;;;11.02;7.20;;;;;;;;;;5057011;28;20036;-82
2022/08/16 08:06:38;;;;;;;7.85;6.90;;;;;;;;;;5057147;28;20389;-83
2022/08/16 08:09:04;;;;;;;10.50;7.47;;;;;;;;;;5055839;28;20020;-79
2022/08/16 08:11:31;;;;;;;9.68;7.72;;;;;;;;;;5051919;28;20028;-82
2022/08/16 08:13:59;;;;;;;9.00;7.60;;;;;;;;;;5056512;28;20020;-81
2022/08/16 08:16:25;;;;;;;13.57;7.60;;;;;;;;;;5055969;28;20079;-80
2022/08/16 08:18:53;;;;;;;11.75;7.35;;;;;;;;;;5056697;28;20039;-81
2022/08/16 08:21:20;;;;;;;8.60;7.68;;;;;;;;;;5067943;28;20112;-82
2022/08/16 08:23:47;;;;;;;9.18;7.30;;;;;;;;;;5055931;28;20107;-81
2022/08/16 08:26:13;;;;;;;10.50;6.95;;;;;;;;;;5055798;28;20031;-79
2022/08/16 08:28:39;;;;;;;10.50;8.30;;;;;;;;;;5054989;28;20028;-81
2022/08/16 08:31:06;;;;;;;12.13;7.97;;;;;;;;;;5056053;28;20024;-82
2022/08/16 08:33:32;;;;;;;11.98;7.75;;;;;;;;;;5056615;28;20110;-81
2022/08/16 08:36:00;;;;;;;12.18;7.95;;;;;;;;;;5054904;28;20025;-82
2022/08/16 08:38:28;;;;;;;18.88;8.80;;;;;;;;;;5055448;28;20147;-81
2022/08/16 08:40:55;;;;;;;13.63;7.72;;;;;;;;;;5055144;28;20020;-81
2022/08/16 08:43:21;;;;;;;10.52;8.18;;;;;;;;;;5055530;28;20062;-81
2022/08/16 08:45:48;;;;;;;14.15;8.40;;;;;;;;;;5055791;28;20121;-82
2022/08/16 08:48:14;;;;;;;10.82;8.30;;;;;;;;;;5050941;28;20099;-83
2022/08/16 08:50:41;;;;;;;15.32;8.02;;;;;;;;;;5040351;28;20033;-84
2022/08/16 08:53:13;;;;;;;9.98;7.65;;;;;;;;;;5045303;28;20029;-83
2022/08/16 08:55:41;;;;;;;10.90;8.15;;;;;;;;;;5043559;28;20036;-83
2022/08/16 08:58:07;;;;;;;9.65;7.22;;;;;;;;;;5043728;28;20100;-84
2022/08/16 09:00:33;;;;;;;12.18;7.07;;;;;;;;;;5039622;28;20112;-82
2022/08/16 09:02:59;;;;;;;8.10;6.97;;;;;;;;;;5055220;28;20025;-84
2022/08/16 09:05:26;;;;;;;9.68;6.68;;;;;;;;;;5055096;28;20031;-82
2022/08/16 09:07:53;;;;;;;9.10;6.65;;;;;;;;;;5054778;28;20036;-82
2022/08/16 09:10:19;;;;;;;7.65;6.63;;;;;;;;;;5055890;28;20029;-83
2022/08/16 09:12:46;;;;;;;12.50;7.82;;;;;;;;;;5055003;28;20386;-83
2022/08/16 09:15:14;;;;;;;8.48;7.57;;;;;;;;;;5069071;28;20009;-83
2022/08/16 09:17:41;;;;;;;9.00;7.70;;;;;;;;;;5097847;28;20040;-82
2022/08/16 09:20:09;;;;;;;10.27;7.40;;;;;;;;;;5097947;28;20061;-82
2022/08/16 09:22:36;;;;;;;8.27;7.47;;;;;;;;;;5073087;28;20029;-83
2022/08/16 09:25:02;;;;;;;8.45;6.82;;;;;;;;;;5055826;28;20025;-81
2022/08/16 09:27:47;;;;;;;9.35;7.57;;;;;;;;;;5051348;28;20024;-82
2022/08/16 09:30:14;;;;;;;9.27;7.78;;;;;;;;;;5055528;28;20054;-82
2022/08/16 09:32:40;;;;;;;8.48;7.47;;;;;;;;;;5055357;28;20028;-81
2022/08/16 09:35:06;;;;;;;9.63;7.22;;;;;;;;;;5054877;28;20017;-83
2022/08/16 09:37:33;;;;;;;9.40;7.13;;;;;;;;;;5055419;28;20024;-81
2022/08/16 09:40:00;;;;;;;10.30;7.65;;;;;;;;;;5055195;28;20029;-81
2022/08/16 09:42:26;;;;;;;8.57;6.13;;;;;;;;;;5055306;28;20078;-81
2022/08/16 09:44:53;;;;;;;10.38;7.55;;;;;;;;;;5055218;28;20028;-81
2022/08/16 09:47:19;;;;;;;9.15;7.28;;;;;;;;;;5055065;28;20024;-83
2022/08/16 09:49:45;;;;;;;12.18;6.63;;;;;;;;;;5055386;28;20047;-81
2022/08/16 09:52:11;;;;;;;9.13;6.20;;;;;;;;;;5055343;28;20029;-81
2022/08/16 09:54:39;;;;;;;11.05;7.40;;;;;;;;;;5055003;28;20025;-82
2022/08/16 09:57:06;;;;;;;8.85;6.15;;;;;;;;;;5055274;28;20389;-83
2022/08/16 09:59:32;;;;;;;11.75;6.00;;;;;;;;;;5055421;28;20477;-84
2022/08/16 10:01:59;;;;;;;8.10;5.90;;;;;;;;;;5054892;28;20055;-83
2022/08/16 10:04:26;;;;;;;10.02;6.65;;;;;;;;;;5055291;28;20021;-84
2022/08/16 10:06:53;;;;;;;10.60;6.35;;;;;;;;;;5055492;28;20020;-84
2022/08/16 10:09:19;;;;;;;9.40;6.00;;;;;;;;;;5058873;28;20024;-84
2022/08/16 10:14:30;;;;;;;7.78;5.50;;;;;;;;;;5076604;28;20082;-84
2022/08/16 10:16:58;;;;;;;12.80;6.18;;;;;;;;;;5062919;28;20040;-83
2022/08/16 10:19:24;;;;;;;8.38;5.43;;;;;;;;;;5075217;28;20103;-83
2022/08/16 10:21:50;;;;;;;9.43;6.30;;;;;;;;;;5075130;28;20025;-84
2022/08/16 10:24:18;;;;;;;16.92;6.40;;;;;;;;;;5075788;28;20035;-85
2022/08/16 10:26:44;;;;;;;9.77;5.43;;;;;;;;;;5062561;28;20082;-83
2022/08/16 10:29:11;;;;;;;8.30;5.20;;;;;;;;;;5056364;28;20115;-85
2022/08/16 10:31:37;;;;;;;13.48;6.63;;;;;;;;;;5056565;28;20090;-83
2022/08/16 10:34:03;;;;;;;9.77;5.50;;;;;;;;;;5056808;28;20430;-84
2022/08/16 10:36:29;;;;;;;9.30;7.50;;;;;;;;;;5055632;28;20047;-83
2022/08/16 10:38:55;;;;;;;9.23;7.50;;;;;;;;;;5054917;28;20462;-84
2022/08/16 10:41:22;;;;;;;14.60;11.32;;;;;;;;;;5055218;28;20021;-84
2022/08/16 10:43:48;;;;;;;8.95;5.15;;;845.00;1996.80;;;;;;5054491;28;20020;-82
2022/08/16 10:46:15;;;;;;;6.97;4.85;;;819.80;1920.00;;;;;;5054714;28;20037;-84
2022/08/16 10:48:43;;;;;;;10.25;5.60;;;820.10;1945.60;;;;;;5054741;28;20116;-82
2022/08/16 10:51:10;;;;;;;10.82;5.82;;;845.20;1971.20;;;;;;5060619;28;20107;-81
2022/08/16 10:53:38;;;;;;;12.50;5.60;;;845.40;1945.60;;;;;;5069067;28;20021;-80
2022/08/16 10:56:05;;;;;;;8.02;5.20;;;;;;;;;;5074461;28;20466;-82
2022/08/16 10:58:32;;;;;;;11.10;5.97;;;;;;;;;;5080002;28;20036;-83
2022/08/16 11:00:58;;;;;;;8.07;4.70;;;;;;;;;;5090781;28;20056;-79
2022/08/16 11:03:27;;;;;;;12.00;7.97;;;;;;;;;;5084635;28;20455;-83
2022/08/16 11:05:53;;;;;;;7.32;4.88;;;;;;;;;;5087226;28;20047;-81
2022/08/16 11:08:23;;;;;;;6.65;5.05;;;;;;;;;;5077523;28;20025;-87
2022/08/16 11:10:49;;;;;;;9.32;4.97;;;;;;;;;;5080787;28;20071;-85
2022/08/16 11:13:17;;;;;;;7.32;4.03;;;;;;;;;;5073716;28;20020;-84
2022/08/16 11:15:43;;;;;;;6.20;4.18;;;;;;;;;;5077322;28;20031;-83
2022/08/16 11:18:11;;;;;;;5.32;3.60;;;;;;;;;;5056619;28;20072;-83
2022/08/16 11:20:43;;;;;;;6.28;3.90;;;;;;;;;;5043900;28;20071;-85
2022/08/16 11:23:14;;;;;;;7.53;3.70;;;;;;;;;;5053149;28;20016;-86
2022/08/16 11:25:48;;;;;;;6.78;3.75;;;;;;;;;;5049931;28;20539;-89
2022/08/16 11:28:19;;;;;;;5.85;3.75;;;;;;;;;;5057683;28;20096;-85
2022/08/16 11:30:46;;;;;;;12.55;4.38;;;;;;;;;;5046722;28;20017;-85
2022/08/16 11:33:12;;;;;;;8.80;3.95;;;;;;;;;;5047339;28;20020;-83
2022/08/16 11:35:47;;;;;;;8.07;4.45;;;;;;;;;;5057629;28;20020;-85
2022/08/16 11:38:15;;;;;;;10.95;4.05;;;;;;;;;;5037085;28;20513;-85
2022/08/16 11:40:45;;;;;;;7.80;3.95;;;;;;;;;;5042748;28;20048;-84
2022/08/16 11:43:16;;;;;;;8.32;3.80;;;;;;;;;;5041334;28;20028;-84
2022/08/16 11:49:04;;;;;;;7.65;3.90;;;;;;;;;;5070055;28;20089;-85
2022/08/16 11:51:32;;;;;;;8.65;3.85;;;;;;;;;;5050327;28;20169;-81
2022/08/16 11:53:59;;;;;;;7.30;4.18;;;;;;;;;;5051746;28;20021;-83
2022/08/16 11:56:30;;;;;;;7.88;3.92;;;;;;;;;;5045415;28;20024;-82
2022/08/16 11:59:02;;;;;;;8.32;4.10;;;;;;;;;;5041601;28;20021;-82
2022/08/16 12:01:28;;;;;;;7.07;4.10;;;;;;;;;;5049465;28;20027;-82
2022/08/16 12:04:03;;;;;;;6.38;3.63;;;;;;;;;;5044850;28;20471;-83
2022/08/16 12:06:30;;;;;;;8.82;4.40;;;;;;;;;;5049071;28;20020;-83
2022/08/16 12:08:57;;;;;;;7.35;4.45;;;;;;;;;;5043036;28;20103;-81
2022/08/16 12:11:24;;;;;;;7.70;3.60;;;;;;;;;;5044887;28;20032;-83
2022/08/16 12:13:52;;;;;;;8.73;4.70;;;;;;;;;;5036337;28;20091;-81
2022/08/16 12:16:18;;;;;;;6.25;4.20;;;;;;;;;;5049532;28;20025;-83
2022/08/16 12:18:44;;;;;;;6.20;3.42;;;;;;;;;;5056518;28;20033;-83
2022/08/16 12:21:11;;;;;;;5.57;3.55;;;;;;;;;;5055383;28;20056;-82
2022/08/16 12:23:37;;;;;;;7.25;3.85;;;;;;;;;;5052572;28;20028;-83
2022/08/16 12:26:03;;;;;;;6.60;3.95;;;;;;;;;;5036078;28;20048;-82
2022/08/16 12:28:31;;;;;;;6.35;3.58;;;;;;;;;;5035901;28;20059;-82
2022/08/16 12:30:58;;;;;;;9.02;3.90;;;;;;;;;;5035705;28;20438;-83
2022/08/16 12:33:24;;;;;;;7.13;3.72;;;;;;;;;;5036107;28;20032;-82
2022/08/16 12:35:50;;;;;;;9.55;4.03;;;;;;;;;;5038830;28;20293;-83
2022/08/16 12:38:17;;;;;;;8.13;4.75;;;;;;;;;;5056135;28;20036;-81
2022/08/16 12:40:45;;;;;;;8.52;3.50;;;;;;;;;;5042903;28;20021;-82
2022/08/16 12:43:12;;;;;;;5.70;3.60;;;;;;;;;;5035829;28;20021;-82
2022/08/16 12:45:45;;;;;;;4.80;3.35;;;845.70;1766.40;;;;;;5052391;28;20032;-82
2022/08/16 12:50:57;;;;;;;8.30;3.50;;;845.30;1792.00;;;;;;5061607;28;20121;-77
2022/08/16 12:53:23;;;;;;;6.20;3.40;;;845.00;1766.40;;;;;;5041220;28;20489;-80
2022/08/16 12:55:49;;;;;;;7.47;4.22;;;844.90;1817.60;;;;;;5037336;28;20021;-80
2022/08/16 12:58:15;;;;;;;7.95;3.30;;;844.80;1792.00;;;;;;5062078;28;20037;-83
2022/08/16 13:00:42;;;;;;;5.65;3.58;;;820.00;1715.20;;;;;;5035431;28;20116;-80
2022/08/16 13:03:08;;;;;;;4.97;3.65;;;819.90;1715.20;;;;;;5039492;28;20520;-82
2022/08/16 13:05:39;;;;;;;7.13;3.80;;;819.80;1740.80;;;;;;5035542;28;20033;-79
2022/08/16 13:08:06;;;;;;;6.63;3.50;;;819.60;1766.40;;;;;;5035720;28;20082;-80
2022/08/16 13:10:33;;;;;;;8.60;4.32;;;819.60;1766.40;;;;;;5039103;28;20308;-82
2022/08/16 13:12:59;;;;;;;5.88;3.28;;;819.40;1792.00;;;;;;5055721;28;20116;-80
2022/08/16 13:15:27;;;;;;;6.57;3.53;;;819.30;1792.00;;;;;;5046788;28;20108;-80
2022/08/16 13:17:53;;;;;;;5.13;3.90;;;819.30;1792.00;;;;;;5059941;28;20044;-80
2022/08/16 13:20:22;;;;;;;9.10;3.70;;;794.40;1843.20;;;;;;5060554;28;20020;-80
2022/08/16 13:22:53;;;;;;;10.32;3.95;;;794.40;1894.40;;;;;;5055425;28;20111;-79
2022/08/16 13:25:22;;;;;;;8.05;4.50;;;794.20;1894.40;;;;;;5057713;28;20066;-81
2022/08/16 13:27:49;;;;;;;7.45;3.95;;;794.00;1868.80;;;;;;5055009;28;20060;-80
2022/08/16 13:30:15;;;;;;;8.93;4.30;;;793.90;1920.00;;;;;;5054139;28;20051;-80
2022/08/16 13:32:41;;;;;;;6.43;3.92;;;793.70;1945.60;;;;;;5054606;28;20051;-82
2022/08/16 13:35:07;;;;;;;6.68;3.60;;;768.70;1920.00;;;;;;5055063;28;20113;-82
2022/08/16 13:37:33;;;;;;;5.63;3.22;;;768.40;1945.60;;;;;;5054702;28;20500;-80
2022/08/16 13:40:01;;;;;;;4.82;3.70;;;768.10;1971.20;;;;;;5055347;28;20099;-83
2022/08/16 13:42:27;;;;;;;5.22;4.03;;;743.20;1996.80;;;;;;5056921;28;20032;-80
2022/08/16 13:44:53;;;;;;;6.07;3.50;;;743.20;1996.80;;;;;;5058905;28;20025;-81